Time;durP1;ratioP1;P1;durP2;ratioP2;P2;SDS_P1;SDS_P2;PMS_P1;PMS_P2;Temp;Humidity;BMP_temperature;BMP_pressure;BME280_temperature;BME280_humidity;BME280_pressure;Samples;Min_cycle;Max_cycle;Signal;HPM_P1;HPM_P2
2023/11/24 00:05:50;;;;;;;;;;;11.40;99.90;;;;;;6753516;87;20074;-79
2023/11/24 00:15:51;;;;;;;;;;;11.40;99.90;;;;;;6754594;88;20226;-79
2023/11/24 00:25:51;;;;;;;;;;;10.00;99.90;;;;;;6756515;87;20098;-79
2023/11/24 00:35:52;;;;;;;;;;;9.60;99.90;;;;;;6757460;87;20547;-79
2023/11/24 00:45:53;;;;;;;;;;;9.20;99.90;;;;;;6758421;87;20113;-78
2023/11/24 00:55:54;;;;;;;;;;;9.00;99.90;;;;;;6756449;87;20177;-79
2023/11/24 01:05:55;;;;;;;;;;;8.80;99.90;;;;;;6720495;77;20091;-78
2023/11/24 01:15:56;;;;;;;;;;;8.60;99.90;;;;;;6696278;88;20064;-78
2023/11/24 01:25:56;;;;;;;;;;;8.60;99.90;;;;;;6704594;88;20566;-79
2023/11/24 01:35:57;;;;;;;;;;;8.60;99.90;;;;;;6709803;88;20151;-79
2023/11/24 01:45:57;;;;;;;;;;;8.70;99.90;;;;;;6708247;88;20078;-78
2023/11/24 01:55:58;;;;;;;;;;;8.60;99.90;;;;;;6701875;88;20148;-78
2023/11/24 02:05:59;;;;;;;;;;;8.70;99.90;;;;;;6702347;88;20081;-78
2023/11/24 02:15:59;;;;;;;;;;;8.60;99.90;;;;;;6702235;88;20088;-78
2023/11/24 02:26:00;;;;;;;;;;;8.60;99.90;;;;;;6706445;88;20050;-78
2023/11/24 02:36:08;;;;;;;;;;;8.40;99.90;;;;;;6693764;88;20051;-77
2023/11/24 02:46:12;;;;;;;;;;;8.40;99.90;;;;;;6682498;88;20091;-78
2023/11/24 02:56:13;;;;;;;;;;;8.40;99.90;;;;;;6684377;88;20060;-79
2023/11/24 03:06:13;;;;;;;;;;;7.90;99.90;;;;;;6700339;88;20075;-78
2023/11/24 03:16:14;;;;;;;;;;;7.60;99.90;;;;;;6702219;88;20059;-78
2023/11/24 03:26:14;;;;;;;;;;;7.30;99.90;;;;;;6703583;88;20090;-78
2023/11/24 03:36:15;;;;;;;;;;;7.30;99.90;;;;;;6703318;88;20077;-79
2023/11/24 03:46:15;;;;;;;;;;;7.20;99.90;;;;;;6703031;88;20051;-79
2023/11/24 03:56:16;;;;;;;;;;;7.20;99.90;;;;;;6702935;88;20063;-78
2023/11/24 04:06:17;;;;;;;;;;;7.20;99.90;;;;;;6707712;88;20102;-79
2023/11/24 04:16:18;;;;;;;;;;;7.20;99.90;;;;;;6705607;88;20091;-79
2023/11/24 04:26:18;;;;;;;;;;;7.10;99.90;;;;;;6702546;88;20055;-77
2023/11/24 04:36:19;;;;;;;;;;;7.20;99.90;;;;;;6703492;88;20091;-77
2023/11/24 04:46:19;;;;;;;;;;;7.30;99.90;;;;;;6703227;88;20999;-77
2023/11/24 04:56:19;;;;;;;;;;;7.40;99.90;;;;;;6702879;88;20524;-80
2023/11/24 05:06:20;;;;;;;;;;;7.20;99.90;;;;;;6703109;88;20063;-78
2023/11/24 05:16:21;;;;;;;;;;;7.30;99.90;;;;;;6703096;88;20617;-78
2023/11/24 05:26:22;;;;;;;;;;;7.40;99.90;;;;;;6703708;88;20070;-78
2023/11/24 05:36:23;;;;;;;;;;;7.50;99.90;;;;;;6702397;88;20054;-77
2023/11/24 05:46:24;;;;;;;;;;;7.30;99.90;;;;;;6701513;88;20119;-77
2023/11/24 05:56:24;;;;;;;;;;;7.10;99.90;;;;;;6704013;88;20167;-78
2023/11/24 06:06:25;;;;;;;;;;;7.00;99.90;;;;;;6700111;88;20833;-77
2023/11/24 06:16:25;;;;;;;;;;;7.00;99.90;;;;;;6706520;88;20071;-78
2023/11/24 06:26:27;;;;;;;;;;;7.00;99.90;;;;;;6707875;88;20170;-77
2023/11/24 06:36:28;;;;;;;;;;;7.10;99.90;;;;;;6698946;88;20050;-77
2023/11/24 06:46:28;;;;;;;;;;;7.10;99.90;;;;;;6700132;88;20137;-77
2023/11/24 06:56:31;;;;;;;;;;;7.10;99.90;;;;;;6690093;88;20080;-78
2023/11/24 07:06:31;;;;;;;;;;;7.00;99.90;;;;;;6696889;88;20059;-79
2023/11/24 07:16:32;;;;;;;;;;;7.10;99.90;;;;;;6696320;88;20072;-80
2023/11/24 07:26:32;;;;;;;;;;;7.10;99.90;;;;;;6704462;88;20093;-80
2023/11/24 07:36:32;;;;;;;;;;;7.20;99.90;;;;;;6729085;88;20062;-78
2023/11/24 07:46:33;;;;;;;;;;;6.90;99.90;;;;;;6722221;88;20072;-79
2023/11/24 07:56:34;;;;;;;;;;;6.60;99.90;;;;;;6702287;88;20984;-79
2023/11/24 08:06:34;;;;;;;;;;;6.60;99.90;;;;;;6688369;88;20205;-79
2023/11/24 08:16:35;;;;;;;;;;;6.60;99.90;;;;;;6707589;88;20058;-80
2023/11/24 08:26:36;;;;;;;;;;;6.40;99.90;;;;;;6708619;88;20077;-79
2023/11/24 08:36:36;;;;;;;;;;;6.50;99.90;;;;;;6708217;88;20097;-78
2023/11/24 08:46:37;;;;;;;;;;;6.60;99.90;;;;;;6691173;88;20052;-79
2023/11/24 08:56:38;;;;;;;;;;;5.30;99.90;;;;;;6696365;88;20496;-77
2023/11/24 09:06:38;;;;;;;;;;;5.10;99.90;;;;;;6694916;88;20513;-79
2023/11/24 09:16:39;;;;;;;;;;;5.40;99.90;;;;;;6706669;88;20076;-79
2023/11/24 09:26:41;;;;;;;;;;;6.30;99.90;;;;;;6703689;88;20476;-78
2023/11/24 09:36:42;;;;;;;;;;;6.50;99.90;;;;;;6706092;88;20145;-78
2023/11/24 09:46:43;;;;;;;;;;;7.00;99.90;;;;;;6709744;88;20051;-80
2023/11/24 09:56:44;;;;;;;;;;;6.90;99.90;;;;;;6706298;88;20449;-79
2023/11/24 10:06:45;;;;;;;;;;;6.90;99.90;;;;;;6703408;88;20060;-78
2023/11/24 10:16:47;;;;;;;;;;;6.90;99.90;;;;;;6703447;88;20551;-79
2023/11/24 10:26:48;;;;;;;;;;;6.90;99.90;;;;;;6704952;88;20067;-79
2023/11/24 10:36:48;;;;;;;;;;;7.10;99.90;;;;;;6707259;88;20099;-78
2023/11/24 10:46:53;;;;;;;;;;;7.00;99.90;;;;;;6708912;88;20058;-78
2023/11/24 10:56:56;;;;;;;;;;;7.00;99.90;;;;;;6710047;88;20080;-77
2023/11/24 11:07:05;;;;;;;;;;;7.00;99.90;;;;;;6700208;88;20079;-78
2023/11/24 11:17:15;;;;;;;;;;;6.80;99.90;;;;;;6701901;88;20082;-79
2023/11/24 11:27:22;;;;;;;;;;;6.90;99.90;;;;;;6700338;88;20061;-79
2023/11/24 11:37:28;;;;;;;;;;;7.00;99.90;;;;;;6709872;88;20130;-80
2023/11/24 11:47:29;;;;;;;;;;;7.30;99.90;;;;;;6703539;88;20072;-79
2023/11/24 11:57:30;;;;;;;;;;;7.00;99.90;;;;;;6705979;88;20113;-78
2023/11/24 12:07:31;;;;;;;;;;;7.20;99.90;;;;;;6706995;88;20059;-79
2023/11/24 12:17:31;;;;;;;;;;;7.20;99.90;;;;;;6710237;88;20500;-79
2023/11/24 12:27:35;;;;;;;;;;;7.10;99.90;;;;;;6713491;88;20078;-79
2023/11/24 12:37:40;;;;;;;;;;;6.90;99.90;;;;;;6713840;88;20067;-79
2023/11/24 12:47:40;;;;;;;;;;;6.90;99.90;;;;;;6702331;88;20221;-79
2023/11/24 13:07:46;;;;;;;;;;;6.00;99.90;;;;;;6727239;88;20084;-79
2023/11/24 13:17:53;;;;;;;;;;;6.70;99.90;;;;;;6711828;88;20722;-80
2023/11/24 13:27:55;;;;;;;;;;;6.30;99.90;;;;;;6711854;88;20066;-81
2023/11/24 13:37:55;;;;;;;;;;;6.20;99.90;;;;;;6711568;88;20052;-79
2023/11/24 13:47:58;;;;;;;;;;;6.20;99.90;;;;;;6709876;88;20184;-79
2023/11/24 13:57:59;;;;;;;;;;;6.30;99.90;;;;;;6709665;88;20576;-79
2023/11/24 14:08:00;;;;;;;;;;;7.00;99.90;;;;;;6705428;88;20131;-80
2023/11/24 14:18:00;;;;;;;;;;;7.50;99.90;;;;;;6705334;88;20533;-79
2023/11/24 14:28:00;;;;;;;;;;;7.10;99.90;;;;;;6709074;88;20147;-80
2023/11/24 14:38:01;;;;;;;;;;;6.60;99.90;;;;;;6711280;88;20112;-79
2023/11/24 14:48:02;;;;;;;;;;;6.50;99.90;;;;;;6720859;88;20039;-82
2023/11/24 14:58:03;;;;;;;;;;;6.40;99.90;;;;;;6717156;88;20197;-81
2023/11/24 15:08:08;;;;;;;;;;;6.30;99.90;;;;;;6713038;88;20075;-79
2023/11/24 15:18:09;;;;;;;;;;;6.20;99.90;;;;;;6708293;88;20271;-80
2023/11/24 15:28:12;;;;;;;;;;;6.10;99.90;;;;;;6714490;88;20063;-79
2023/11/24 15:38:15;;;;;;;;;;;6.00;99.90;;;;;;6714739;88;20075;-81
2023/11/24 15:48:15;;;;;;;;;;;5.90;99.90;;;;;;6717797;88;20064;-80
2023/11/24 15:58:16;;;;;;;;;;;5.70;99.90;;;;;;6703953;88;20085;-80
2023/11/24 16:08:17;;;;;;;;;;;5.40;99.90;;;;;;6707858;88;20095;-80
2023/11/24 16:18:18;;;;;;;;;;;5.00;99.90;;;;;;6721409;88;20081;-80
2023/11/24 16:28:19;;;;;;;;;;;4.80;99.90;;;;;;6721625;88;20123;-79
2023/11/24 16:38:19;;;;;;;;;;;4.70;99.90;;;;;;6724425;88;20054;-81
2023/11/24 16:48:20;;;;;;;;;;;4.50;99.90;;;;;;6743377;88;20120;-80
2023/11/24 16:58:20;;;;;;;;;;;4.50;99.90;;;;;;6739079;88;20057;-81
2023/11/24 17:08:21;;;;;;;;;;;4.50;99.90;;;;;;6732398;88;20145;-82
2023/11/24 17:18:21;;;;;;;;;;;4.40;99.90;;;;;;6713261;88;20517;-78
2023/11/24 17:28:22;;;;;;;;;;;3.00;99.90;;;;;;6712897;88;20064;-78
2023/11/24 17:38:22;;;;;;;;;;;2.90;99.90;;;;;;6713421;88;20075;-78
2023/11/24 17:48:23;;;;;;;;;;;3.10;99.90;;;;;;6708130;88;20097;-78
2023/11/24 17:59:12;;;;;;;;;;;;;;;;;;;;;
2023/11/24 18:09:13;;;;;;;;;;;3.80;99.90;;;;;;6705311;88;20067;-80
2023/11/24 18:19:14;;;;;;;;;;;4.10;99.90;;;;;;6709156;88;20138;-79
2023/11/24 18:29:14;;;;;;;;;;;4.30;99.90;;;;;;6707389;88;20076;-80
2023/11/24 18:39:15;;;;;;;;;;;4.30;99.90;;;;;;6709279;88;20302;-80
2023/11/24 18:49:15;;;;;;;;;;;4.30;99.90;;;;;;6714376;88;20597;-80
2023/11/24 18:59:16;;;;;;;;;;;4.30;99.90;;;;;;6703524;88;20804;-80
2023/11/24 19:19:58;;;;;;;;;;;4.20;99.90;;;;;;6731854;88;20065;-80
2023/11/24 19:29:58;;;;;;;;;;;4.20;99.90;;;;;;6731503;88;20077;-80
2023/11/24 19:39:59;;;;;;;;;;;4.20;99.90;;;;;;6733174;88;20038;-80
2023/11/24 19:49:59;;;;;;;;;;;4.20;99.90;;;;;;6723829;88;20101;-79
2023/11/24 20:00:00;;;;;;;;;;;4.30;99.90;;;;;;6723222;88;20066;-80
2023/11/24 20:10:01;;;;;;;;;;;4.40;99.90;;;;;;6722675;88;20121;-80
2023/11/24 20:20:01;;;;;;;;;;;4.50;99.90;;;;;;6727892;88;20180;-80
2023/11/24 20:30:05;;;;;;;;;;;4.50;99.90;;;;;;6727062;88;20072;-79
2023/11/24 20:40:06;;;;;;;;;;;4.50;99.90;;;;;;6718628;88;20084;-79
2023/11/24 20:50:07;;;;;;;;;;;4.30;99.90;;;;;;6725245;88;20667;-78
2023/11/24 21:00:10;;;;;;;;;;;3.90;99.90;;;;;;6719770;88;20181;-78
2023/11/24 21:10:11;;;;;;;;;;;3.40;99.90;;;;;;6725550;88;20077;-78
2023/11/24 21:20:13;;;;;;;;;;;3.50;99.90;;;;;;6725020;88;20132;-77
2023/11/24 21:30:14;;;;;;;;;;;3.60;99.90;;;;;;6719565;88;20075;-79
2023/11/24 21:40:16;;;;;;;;;;;3.60;99.90;;;;;;6714166;88;20594;-78
2023/11/24 21:50:17;;;;;;;;;;;3.60;99.90;;;;;;6717024;88;20593;-78
2023/11/24 22:00:17;;;;;;;;;;;3.60;99.90;;;;;;6714214;88;20071;-78
2023/11/24 22:10:19;;;;;;;;;;;3.60;99.90;;;;;;6719140;88;20059;-78
2023/11/24 22:20:19;;;;;;;;;;;3.50;99.90;;;;;;6719287;88;20066;-79
2023/11/24 22:30:20;;;;;;;;;;;3.40;99.90;;;;;;6714325;88;20084;-78
2023/11/24 22:40:20;;;;;;;;;;;3.40;99.90;;;;;;6716053;88;20146;-79
2023/11/24 22:50:21;;;;;;;;;;;3.40;99.90;;;;;;6715748;88;20051;-79
2023/11/24 23:00:39;;;;;;;;;;;3.40;99.90;;;;;;6721465;88;20080;-79
2023/11/24 23:10:40;;;;;;;;;;;3.40;99.90;;;;;;6717920;88;20656;-78
2023/11/24 23:20:40;;;;;;;;;;;3.40;99.90;;;;;;6717074;88;20144;-78
2023/11/24 23:30:41;;;;;;;;;;;3.30;99.90;;;;;;6717174;88;20649;-78
2023/11/24 23:40:41;;;;;;;;;;;3.30;99.90;;;;;;6715614;88;20081;-78
2023/11/24 23:50:42;;;;;;;;;;;3.10;99.90;;;;;;6718038;88;20509;-78
